createdAt,value
2022-10-15T00:00:08.338Z,96.61
2022-10-15T00:02:34.779Z,96.55
2022-10-15T00:05:01.357Z,96.50
2022-10-15T00:07:28.702Z,96.68
2022-10-15T00:09:55.280Z,96.70
2022-10-15T00:12:21.735Z,96.77
2022-10-15T00:14:48.133Z,96.69
2022-10-15T00:17:14.557Z,96.69
2022-10-15T00:19:40.903Z,97.04
2022-10-15T00:22:07.334Z,97.08
2022-10-15T00:24:33.668Z,97.19
2022-10-15T00:27:00.092Z,97.03
2022-10-15T00:29:26.433Z,97.17
2022-10-15T00:31:52.991Z,97.39
2022-10-15T00:34:19.422Z,97.18
2022-10-15T00:36:45.931Z,97.38
2022-10-15T00:39:12.318Z,97.46
2022-10-15T00:41:43.085Z,98.04
2022-10-15T00:44:21.642Z,98.71
2022-10-15T00:47:14.454Z,99.16
2022-10-15T00:49:44.921Z,97.72
2022-10-15T00:52:17.842Z,98.17
2022-10-15T00:54:57.858Z,98.47
2022-10-15T00:57:24.904Z,97.34
2022-10-15T00:59:54.532Z,97.59
2022-10-15T01:02:21.510Z,97.43
2022-10-15T01:04:48.927Z,97.35
2022-10-15T01:09:43.103Z,97.00
2022-10-15T01:12:24.414Z,97.52
2022-10-15T01:15:03.479Z,97.12
2022-10-15T01:17:47.913Z,98.06
2022-10-15T01:20:51.380Z,98.03
2022-10-15T01:23:39.680Z,97.88
2022-10-15T01:26:35.196Z,97.77
2022-10-15T01:29:32.243Z,97.37
2022-10-15T01:32:17.322Z,97.39
2022-10-15T01:35:10.157Z,97.42
2022-10-15T01:37:50.163Z,96.86
2022-10-15T01:40:30.747Z,96.52
2022-10-15T01:42:59.867Z,95.85
2022-10-15T01:45:39.119Z,96.38
2022-10-15T01:48:11.757Z,96.22
2022-10-15T01:50:44.472Z,95.39
2022-10-15T01:53:13.952Z,95.21
2022-10-15T01:55:43.877Z,95.29
2022-10-15T01:58:12.555Z,95.01
2022-10-15T02:00:41.456Z,95.03
2022-10-15T02:03:08.034Z,94.69
2022-10-15T02:05:44.670Z,95.34
2022-10-15T02:08:38.328Z,95.76
2022-10-15T02:11:09.228Z,94.16
2022-10-15T02:14:18.954Z,95.90
2022-10-15T02:17:01.954Z,95.40
2022-10-15T02:19:47.088Z,95.22
2022-10-15T02:22:22.208Z,94.48
2022-10-15T02:25:23.268Z,95.25
2022-10-15T02:27:52.329Z,93.68
2022-10-15T02:30:19.754Z,93.96
2022-10-15T02:32:52.078Z,94.27
2022-10-15T02:35:21.276Z,93.47
2022-10-15T02:37:51.967Z,93.38
2022-10-15T02:40:21.778Z,93.10
2022-10-15T02:42:50.043Z,92.98
2022-10-15T02:45:16.470Z,92.61
2022-10-15T02:47:42.824Z,92.38
2022-10-15T02:50:09.589Z,92.49
2022-10-15T02:52:36.001Z,92.32
2022-10-15T02:55:02.474Z,91.98
2022-10-15T02:57:28.858Z,92.07
2022-10-15T02:59:55.197Z,91.69
2022-10-15T03:02:21.636Z,91.37
2022-10-15T03:04:48.033Z,91.08
2022-10-15T03:07:14.733Z,91.04
2022-10-15T03:09:41.164Z,90.98
2022-10-15T03:12:07.657Z,91.08
2022-10-15T03:14:34.384Z,91.25
2022-10-15T03:17:00.754Z,91.43
2022-10-15T03:19:27.081Z,91.62
2022-10-15T03:21:53.439Z,91.83
2022-10-15T03:24:19.856Z,91.55
2022-10-15T03:26:46.279Z,91.28
2022-10-15T03:29:12.810Z,91.11
2022-10-15T03:31:39.312Z,91.07
2022-10-15T03:34:05.686Z,91.09
2022-10-15T03:36:32.021Z,91.38
2022-10-15T03:38:58.425Z,91.60
2022-10-15T03:41:25.187Z,92.04
2022-10-15T03:43:51.573Z,92.77
2022-10-15T03:46:17.949Z,93.05
2022-10-15T03:48:44.604Z,92.98
2022-10-15T03:51:10.942Z,93.50
2022-10-15T03:53:37.675Z,93.77
2022-10-15T03:56:05.298Z,93.86
2022-10-15T03:58:31.695Z,93.84
2022-10-15T04:00:58.183Z,94.19
2022-10-15T04:03:24.660Z,94.12
2022-10-15T04:05:54.096Z,94.51
2022-10-15T04:08:21.708Z,94.57
2022-10-15T04:10:48.086Z,94.76
2022-10-15T04:13:14.433Z,94.57
2022-10-15T04:15:40.926Z,94.41
2022-10-15T04:18:07.598Z,94.62
2022-10-15T04:20:34.007Z,94.62
2022-10-15T04:23:00.414Z,94.51
2022-10-15T04:25:26.821Z,94.77
2022-10-15T04:27:53.812Z,94.57
2022-10-15T04:30:20.191Z,94.54
2022-10-15T04:32:46.610Z,94.22
2022-10-15T04:35:13.032Z,94.21
2022-10-15T04:37:39.434Z,94.13
2022-10-15T04:40:06.466Z,93.84
2022-10-15T04:42:32.931Z,93.75
2022-10-15T04:44:59.367Z,93.78
2022-10-15T04:47:25.941Z,93.82
2022-10-15T04:49:52.571Z,93.38
2022-10-15T04:52:18.973Z,93.63
2022-10-15T04:54:45.378Z,93.64
2022-10-15T04:57:11.699Z,93.57
2022-10-15T04:59:38.253Z,93.43
2022-10-15T05:02:04.842Z,93.54
2022-10-15T05:04:31.383Z,93.62
2022-10-15T05:06:57.867Z,93.72
2022-10-15T05:09:24.466Z,93.81
2022-10-15T05:11:51.090Z,93.64
2022-10-15T05:14:17.589Z,93.63
2022-10-15T05:16:43.982Z,93.82
2022-10-15T05:19:12.074Z,93.83
2022-10-15T05:21:38.636Z,93.77
2022-10-15T05:24:05.562Z,93.85
2022-10-15T05:26:32.585Z,93.72
2022-10-15T05:28:59.934Z,93.74
2022-10-15T05:31:29.431Z,94.03
2022-10-15T05:33:56.547Z,93.46
2022-10-15T05:36:26.318Z,93.85
2022-10-15T05:38:58.527Z,93.66
2022-10-15T05:41:26.157Z,93.48
2022-10-15T05:43:54.784Z,93.54
2022-10-15T05:46:21.900Z,93.43
2022-10-15T05:48:53.236Z,93.82
2022-10-15T05:51:19.592Z,92.94
2022-10-15T05:53:48.994Z,92.74
2022-10-15T05:56:16.197Z,92.83
2022-10-15T05:58:42.609Z,92.79
2022-10-15T06:01:12.536Z,92.96
2022-10-15T06:03:40.475Z,92.92
2022-10-15T06:06:18.466Z,94.16
2022-10-15T06:08:45.026Z,93.08
2022-10-15T06:11:11.712Z,92.81
2022-10-15T06:13:41.005Z,93.03
2022-10-15T06:16:08.613Z,92.89
2022-10-15T06:18:36.304Z,93.10
2022-10-15T06:21:02.725Z,92.68
2022-10-15T06:23:29.150Z,92.55
2022-10-15T06:25:55.583Z,92.53
2022-10-15T06:28:22.493Z,92.63
2022-10-15T06:30:48.921Z,92.76
2022-10-15T06:33:16.971Z,92.74
2022-10-15T06:35:43.538Z,92.47
2022-10-15T06:38:10.030Z,92.17
2022-10-15T06:40:37.641Z,92.27
2022-10-15T06:43:08.431Z,92.13
2022-10-15T06:45:36.941Z,92.23
2022-10-15T06:48:07.066Z,92.12
2022-10-15T06:50:36.239Z,91.86
2022-10-15T06:53:03.429Z,91.70
2022-10-15T06:55:29.809Z,91.62
2022-10-15T06:57:57.000Z,92.00
2022-10-15T07:00:24.905Z,92.29
2022-10-15T07:02:51.754Z,92.27
2022-10-15T07:05:19.048Z,91.92
2022-10-15T07:07:56.385Z,92.79
2022-10-15T07:10:24.439Z,91.52
2022-10-15T07:12:51.171Z,91.58
2022-10-15T07:15:19.311Z,91.69
2022-10-15T07:17:50.618Z,92.06
2022-10-15T07:20:21.756Z,91.71
2022-10-15T07:22:51.016Z,91.47
2022-10-15T07:25:18.234Z,91.40
2022-10-15T07:27:45.280Z,91.42
2022-10-15T07:30:11.914Z,91.50
2022-10-15T07:32:38.941Z,91.59
2022-10-15T07:35:08.539Z,91.12
2022-10-15T07:37:37.690Z,91.15
2022-10-15T07:40:08.175Z,90.59
2022-10-15T07:42:36.090Z,89.13
2022-10-15T07:45:04.602Z,88.34
2022-10-15T07:47:33.928Z,87.92
2022-10-15T07:50:05.130Z,87.04
2022-10-15T07:52:32.102Z,87.21
2022-10-15T07:54:58.937Z,87.29
2022-10-15T07:57:25.888Z,87.70
2022-10-15T07:59:52.626Z,87.32
2022-10-15T08:02:19.479Z,86.07
2022-10-15T08:04:48.251Z,85.78
2022-10-15T08:07:15.191Z,85.53
2022-10-15T08:09:51.688Z,86.26
2022-10-15T08:12:24.304Z,85.18
2022-10-15T08:14:54.767Z,84.93
2022-10-15T08:17:24.836Z,84.92
2022-10-15T08:20:04.748Z,85.42
2022-10-15T08:22:35.951Z,84.97
2022-10-15T08:25:13.285Z,84.63
2022-10-15T08:27:43.391Z,84.53
2022-10-15T08:30:22.363Z,84.80
2022-10-15T08:32:53.046Z,84.76
2022-10-15T08:35:25.115Z,84.78
2022-10-15T08:38:02.378Z,85.14
2022-10-15T08:40:30.417Z,84.53
2022-10-15T08:42:57.843Z,84.46
2022-10-15T08:45:34.570Z,84.89
2022-10-15T08:48:10.511Z,84.89
2022-10-15T08:51:15.664Z,86.05
2022-10-15T08:54:18.113Z,85.58
2022-10-15T08:56:54.650Z,83.77
2022-10-15T08:59:24.796Z,81.40
2022-10-15T09:01:55.824Z,80.70
2022-10-15T09:04:49.682Z,79.40
2022-10-15T09:07:28.812Z,78.82
2022-10-15T09:10:14.510Z,79.37
2022-10-15T09:12:59.449Z,78.13
2022-10-15T09:15:28.088Z,77.83
2022-10-15T09:17:59.724Z,78.75
2022-10-15T09:20:33.553Z,77.82
2022-10-15T09:23:01.652Z,76.14
2022-10-15T09:25:45.370Z,75.70
2022-10-15T09:28:22.969Z,74.87
2022-10-15T09:31:03.001Z,74.56
2022-10-15T09:33:57.458Z,73.62
2022-10-15T09:36:47.298Z,71.98
2022-10-15T09:39:46.436Z,72.02
2022-10-15T09:42:44.590Z,71.76
2022-10-15T09:45:13.859Z,70.82
2022-10-15T09:47:46.263Z,72.68
2022-10-15T09:50:15.852Z,70.17
2022-10-15T09:53:15.278Z,69.77
2022-10-15T09:55:53.722Z,67.46
2022-10-15T09:58:33.588Z,65.84
2022-10-15T10:01:07.571Z,66.92
2022-10-15T10:03:42.702Z,65.81
2022-10-15T10:06:36.402Z,64.23
2022-10-15T10:09:09.652Z,62.45
2022-10-15T10:12:09.717Z,62.47
2022-10-15T10:14:40.901Z,62.09
2022-10-15T10:17:33.396Z,60.73
2022-10-15T10:20:09.829Z,59.57
2022-10-15T10:23:24.582Z,59.97
2022-10-15T10:26:01.213Z,60.38
2022-10-15T10:28:49.533Z,61.09
2022-10-15T10:31:33.803Z,59.03
2022-10-15T10:34:07.380Z,59.40
2022-10-15T10:36:44.280Z,58.46
2022-10-15T10:39:17.162Z,58.96
2022-10-15T10:42:01.635Z,58.77
2022-10-15T10:44:35.527Z,57.11
2022-10-15T10:47:10.943Z,57.19
2022-10-15T10:49:41.678Z,55.88
2022-10-15T10:52:31.300Z,57.18
2022-10-15T10:55:26.738Z,54.90
2022-10-15T10:58:22.127Z,54.74
2022-10-15T11:01:08.228Z,53.24
2022-10-15T11:03:47.814Z,53.52
2022-10-15T11:06:48.920Z,52.00
2022-10-15T11:10:01.105Z,54.17
2022-10-15T11:12:49.518Z,53.71
2022-10-15T11:15:52.596Z,54.06
2022-10-15T11:18:35.375Z,54.42
2022-10-15T11:21:26.044Z,56.13
2022-10-15T11:24:10.840Z,57.67
2022-10-15T11:27:11.230Z,57.29
2022-10-15T11:30:02.755Z,56.49
2022-10-15T11:33:01.739Z,56.69
2022-10-15T11:35:52.939Z,57.26
2022-10-15T11:38:33.654Z,56.17
2022-10-15T11:42:02.937Z,56.91
2022-10-15T11:44:35.793Z,55.00
2022-10-15T11:47:30.050Z,54.45
2022-10-15T11:50:21.675Z,54.09
2022-10-15T11:53:29.166Z,53.22
2022-10-15T11:56:14.147Z,52.16
2022-10-15T11:59:10.842Z,51.61
2022-10-15T12:01:55.799Z,51.83
2022-10-15T12:05:00.051Z,51.30
2022-10-15T12:07:55.308Z,52.24
2022-10-15T12:10:59.825Z,52.39
2022-10-15T12:13:48.859Z,51.46
2022-10-15T12:16:50.784Z,50.94
2022-10-15T12:19:33.882Z,49.82
2022-10-15T12:22:15.003Z,49.88
2022-10-15T12:24:47.965Z,50.34
2022-10-15T12:27:36.801Z,50.38
2022-10-15T12:30:05.322Z,49.98
2022-10-15T12:33:00.932Z,50.38
2022-10-15T12:35:44.409Z,50.26
2022-10-15T12:38:28.526Z,50.26
2022-10-15T12:41:22.012Z,48.76
2022-10-15T12:44:08.296Z,48.88
2022-10-15T12:46:53.816Z,49.27
2022-10-15T12:49:28.580Z,49.35
2022-10-15T12:51:59.437Z,48.56
2022-10-15T12:54:48.815Z,48.95
2022-10-15T12:57:37.183Z,49.39
2022-10-15T13:00:31.803Z,48.93
2022-10-15T13:03:22.387Z,49.65
2022-10-15T13:06:13.757Z,49.44
2022-10-15T13:08:47.354Z,51.03
2022-10-15T13:11:34.521Z,50.24
2022-10-15T13:14:27.829Z,50.45
2022-10-15T13:17:01.649Z,51.66
2022-10-15T13:19:44.392Z,51.87
2022-10-15T13:22:29.039Z,51.99
2022-10-15T13:25:03.106Z,52.49
2022-10-15T13:27:43.292Z,52.89
2022-10-15T13:30:19.541Z,53.57
2022-10-15T13:32:54.416Z,53.12
2022-10-15T13:35:34.952Z,53.86
2022-10-15T13:38:30.380Z,53.77
2022-10-15T13:41:01.422Z,53.98
2022-10-15T13:43:43.364Z,53.97
2022-10-15T13:46:16.184Z,54.56
2022-10-15T13:48:45.026Z,54.89
2022-10-15T13:51:24.628Z,55.21
2022-10-15T13:53:59.464Z,55.80
2022-10-15T13:56:49.469Z,55.98
2022-10-15T13:59:28.006Z,55.88
2022-10-15T14:02:05.877Z,55.23
2022-10-15T14:04:35.009Z,54.86
2022-10-15T14:07:32.196Z,55.11
2022-10-15T14:10:27.762Z,54.17
2022-10-15T14:13:13.076Z,54.84
2022-10-15T14:15:47.321Z,54.12
2022-10-15T14:18:27.118Z,54.82
2022-10-15T14:21:01.827Z,54.22
2022-10-15T14:26:39.098Z,54.50
2022-10-15T14:29:15.089Z,54.22
2022-10-15T14:31:49.503Z,54.51
2022-10-15T14:34:40.298Z,55.31
2022-10-15T14:37:32.197Z,55.95
2022-10-15T14:40:35.245Z,56.88
2022-10-15T14:43:21.401Z,57.14
2022-10-15T14:46:05.802Z,58.00
2022-10-15T14:48:43.899Z,58.03
2022-10-15T14:51:26.130Z,58.17
2022-10-15T14:53:57.283Z,57.91
2022-10-15T14:56:32.017Z,58.65
2022-10-15T14:59:08.879Z,58.67
2022-10-15T15:01:35.977Z,59.35
2022-10-15T15:04:05.934Z,59.29
2022-10-15T15:06:37.377Z,59.67
2022-10-15T15:09:10.521Z,60.95
2022-10-15T15:11:44.811Z,61.18
2022-10-15T15:14:30.361Z,61.30
2022-10-15T15:17:00.636Z,61.59
2022-10-15T15:19:30.866Z,61.70
2022-10-15T15:21:59.988Z,61.33
2022-10-15T15:24:33.339Z,62.13
2022-10-15T15:27:27.417Z,62.05
2022-10-15T15:30:01.221Z,62.56
2022-10-15T15:32:48.787Z,62.30
2022-10-15T15:35:30.113Z,62.62
2022-10-15T15:38:00.075Z,62.97
2022-10-15T15:40:32.039Z,63.53
2022-10-15T15:42:59.073Z,63.42
2022-10-15T15:45:27.504Z,63.63
2022-10-15T15:47:58.611Z,63.35
2022-10-15T15:50:36.623Z,64.09
2022-10-15T15:53:04.766Z,64.47
2022-10-15T15:55:32.331Z,65.06
2022-10-15T15:57:59.404Z,65.00
2022-10-15T16:00:26.872Z,65.83
2022-10-15T16:02:58.034Z,66.38
2022-10-15T16:05:25.953Z,67.44
2022-10-15T16:07:54.858Z,69.13
2022-10-15T16:10:24.025Z,69.47
2022-10-15T16:12:55.977Z,70.34
2022-10-15T16:15:22.927Z,71.30
2022-10-15T16:17:50.196Z,71.82
2022-10-15T16:20:17.594Z,73.12
2022-10-15T16:22:44.706Z,73.75
2022-10-15T16:25:17.914Z,75.23
2022-10-15T16:27:54.895Z,75.13
2022-10-15T16:30:22.040Z,75.45
2022-10-15T16:32:48.906Z,76.36
2022-10-15T16:35:15.591Z,76.96
2022-10-15T16:37:46.094Z,77.49
2022-10-15T16:40:14.329Z,77.84
2022-10-15T16:42:41.506Z,78.41
2022-10-15T16:45:09.841Z,79.02
2022-10-15T16:47:39.175Z,79.82
2022-10-15T16:50:20.429Z,80.12
2022-10-15T16:52:50.339Z,80.34
2022-10-15T16:55:18.085Z,80.65
2022-10-15T16:57:45.342Z,81.20
2022-10-15T17:00:25.138Z,81.58
2022-10-15T17:02:51.597Z,81.42
2022-10-15T17:05:18.022Z,81.74
2022-10-15T17:07:44.395Z,82.47
2022-10-15T17:10:13.932Z,83.35
2022-10-15T17:12:41.391Z,83.53
2022-10-15T17:15:08.537Z,83.63
2022-10-15T17:17:35.791Z,84.55
2022-10-15T17:20:02.162Z,84.84
2022-10-15T17:22:28.517Z,85.35
2022-10-15T17:24:54.887Z,85.47
2022-10-15T17:27:21.292Z,86.38
2022-10-15T17:29:47.686Z,86.36
2022-10-15T17:32:14.007Z,86.90
2022-10-15T17:34:40.343Z,87.29
2022-10-15T17:37:07.588Z,87.69
2022-10-15T17:39:35.305Z,88.02
2022-10-15T17:42:01.710Z,88.28
2022-10-15T17:44:28.114Z,88.79
2022-10-15T17:46:54.503Z,89.12
2022-10-15T17:49:20.981Z,89.51
2022-10-15T17:51:47.628Z,89.51
2022-10-15T17:54:14.173Z,89.79
2022-10-15T17:56:40.648Z,90.09
2022-10-15T17:59:09.096Z,90.75
2022-10-15T18:04:24.627Z,91.28
2022-10-15T18:06:51.067Z,91.59
2022-10-15T18:09:17.495Z,91.90
2022-10-15T18:11:46.003Z,92.26
2022-10-15T18:14:12.459Z,92.11
2022-10-15T18:16:39.117Z,92.87
2022-10-15T18:19:05.528Z,92.66
2022-10-15T18:21:31.893Z,93.19
2022-10-15T18:23:59.935Z,93.22
2022-10-15T18:26:26.387Z,92.95
2022-10-15T18:28:54.972Z,93.34
2022-10-15T18:31:22.026Z,93.45
2022-10-15T18:33:57.454Z,94.22
2022-10-15T18:36:26.263Z,94.02
2022-10-15T18:38:54.263Z,94.18
2022-10-15T18:41:33.545Z,95.36
2022-10-15T18:44:05.843Z,94.38
2022-10-15T18:46:33.878Z,94.26
2022-10-15T18:49:00.590Z,93.83
2022-10-15T18:51:28.646Z,93.54
2022-10-15T18:53:55.449Z,94.02
2022-10-15T18:56:22.543Z,93.91
2022-10-15T18:58:49.190Z,93.42
2022-10-15T19:01:34.185Z,94.31
2022-10-15T19:04:06.711Z,93.44
2022-10-15T19:06:36.166Z,92.97
2022-10-15T19:09:05.172Z,92.72
2022-10-15T19:11:32.351Z,92.72
2022-10-15T19:14:00.438Z,92.86
2022-10-15T19:16:28.158Z,93.60
2022-10-15T19:18:54.569Z,93.52
2022-10-15T19:21:21.691Z,93.92
2022-10-15T19:23:48.114Z,93.83
2022-10-15T19:26:15.631Z,93.91
2022-10-15T19:28:42.584Z,94.32
2022-10-15T19:31:12.821Z,94.80
2022-10-15T19:33:39.527Z,95.03
2022-10-15T19:36:06.297Z,94.59
2022-10-15T19:38:33.745Z,94.62
2022-10-15T19:41:04.073Z,94.77
2022-10-15T19:43:30.520Z,94.93
2022-10-15T19:46:02.499Z,95.30
2022-10-15T19:48:28.926Z,95.01
2022-10-15T19:50:55.314Z,95.04
2022-10-15T19:53:21.709Z,95.21
2022-10-15T19:56:17.217Z,96.84
2022-10-15T19:58:43.916Z,95.85
2022-10-15T20:01:11.120Z,96.51
2022-10-15T20:03:37.613Z,96.46
2022-10-15T20:06:08.419Z,96.50
2022-10-15T20:08:35.479Z,95.88
2022-10-15T20:11:06.553Z,95.96
2022-10-15T20:13:33.348Z,95.98
2022-10-15T20:16:03.060Z,95.98
2022-10-15T20:18:29.627Z,95.52
2022-10-15T20:20:55.972Z,95.45
2022-10-15T20:23:23.589Z,94.99
2022-10-15T20:25:50.004Z,94.82
2022-10-15T20:28:18.214Z,94.49
2022-10-15T20:30:45.793Z,94.43
2022-10-15T20:33:13.150Z,94.24
2022-10-15T20:35:40.657Z,94.16
2022-10-15T20:38:07.460Z,93.91
2022-10-15T20:40:34.988Z,93.59
2022-10-15T20:43:01.825Z,93.58
2022-10-15T20:45:34.509Z,93.51
2022-10-15T20:48:02.770Z,93.10
2022-10-15T20:50:34.403Z,93.52
2022-10-15T20:53:02.470Z,92.79
2022-10-15T20:55:28.898Z,92.88
2022-10-15T20:57:55.426Z,92.46
2022-10-15T21:00:21.925Z,92.20
2022-10-15T21:02:48.304Z,91.80
2022-10-15T21:05:14.764Z,91.47
2022-10-15T21:07:41.142Z,90.82
2022-10-15T21:10:07.805Z,90.11
2022-10-15T21:12:34.265Z,88.67
2022-10-15T21:15:00.678Z,88.05
2022-10-15T21:17:27.370Z,87.21
2022-10-15T21:19:54.380Z,85.76
2022-10-15T21:22:20.896Z,85.33
2022-10-15T21:24:47.323Z,84.91
2022-10-15T21:27:13.792Z,84.53
2022-10-15T21:29:42.225Z,84.48
2022-10-15T21:32:12.039Z,84.50
2022-10-15T21:34:38.469Z,84.40
2022-10-15T21:37:05.006Z,84.20
2022-10-15T21:39:31.527Z,84.55
2022-10-15T21:41:57.973Z,84.88
2022-10-15T21:44:24.476Z,84.96
2022-10-15T21:46:50.942Z,85.38
2022-10-15T21:49:17.323Z,85.54
2022-10-15T21:51:44.086Z,85.53
2022-10-15T21:54:10.876Z,85.88
2022-10-15T21:56:38.498Z,85.96
2022-10-15T21:59:05.039Z,86.22
2022-10-15T22:01:34.676Z,86.13
2022-10-15T22:04:04.249Z,85.97
2022-10-15T22:06:32.057Z,85.40
2022-10-15T22:08:59.166Z,85.21
2022-10-15T22:11:28.326Z,85.24
2022-10-15T22:13:58.976Z,85.13
2022-10-15T22:16:26.449Z,84.51
2022-10-15T22:18:55.095Z,84.59
2022-10-15T22:21:24.391Z,84.75
2022-10-15T22:23:53.504Z,84.67
2022-10-15T22:26:22.201Z,84.78
2022-10-15T22:28:48.817Z,84.74
2022-10-15T22:31:16.828Z,84.71
2022-10-15T22:33:45.169Z,84.93
2022-10-15T22:36:16.982Z,85.21
2022-10-15T22:38:45.377Z,84.83
2022-10-15T22:41:13.255Z,84.99
2022-10-15T22:43:40.174Z,84.93
2022-10-15T22:46:06.708Z,85.17
2022-10-15T22:48:38.627Z,85.76
2022-10-15T22:51:07.510Z,85.74
2022-10-15T22:53:34.148Z,85.76
2022-10-15T22:56:02.658Z,85.92
2022-10-15T22:58:33.216Z,86.50
2022-10-15T23:01:08.318Z,87.12
2022-10-15T23:03:35.265Z,86.50
2022-10-15T23:06:01.746Z,86.46
2022-10-15T23:08:28.141Z,86.45
2022-10-15T23:11:09.131Z,87.80
2022-10-15T23:13:37.238Z,87.70
2022-10-15T23:16:15.766Z,88.22
2022-10-15T23:18:43.858Z,87.84
2022-10-15T23:21:13.758Z,88.20
2022-10-15T23:23:41.110Z,88.30
2022-10-15T23:26:17.976Z,88.67
2022-10-15T23:28:49.413Z,89.10
2022-10-15T23:31:26.335Z,89.87
2022-10-15T23:33:54.138Z,89.09
2022-10-15T23:36:21.794Z,89.35
2022-10-15T23:38:53.757Z,89.80
2022-10-15T23:41:20.234Z,89.12
2022-10-15T23:43:47.111Z,89.66
2022-10-15T23:46:14.882Z,89.68
2022-10-15T23:48:41.479Z,89.23
2022-10-15T23:51:28.202Z,90.39
2022-10-15T23:53:57.152Z,88.95
2022-10-15T23:56:24.996Z,88.98
2022-10-15T23:58:56.021Z,88.81
